sensor_id;sensor_type;location;lat;lon;timestamp;P1;durP1;ratioP1;P2;durP2;ratioP2
28519;SDS011;15732;48.534;20.382;2023-03-23T00:01:42;8.60;;;4.28;;
28519;SDS011;15732;48.534;20.382;2023-03-23T00:04:09;9.45;;;4.38;;
28519;SDS011;15732;48.534;20.382;2023-03-23T00:09:05;9.88;;;3.75;;
28519;SDS011;15732;48.534;20.382;2023-03-23T00:11:32;8.18;;;3.72;;
28519;SDS011;15732;48.534;20.382;2023-03-23T00:14:03;9.20;;;4.07;;
28519;SDS011;15732;48.534;20.382;2023-03-23T00:16:31;13.57;;;4.78;;
28519;SDS011;15732;48.534;20.382;2023-03-23T00:19:00;11.57;;;3.65;;
28519;SDS011;15732;48.534;20.382;2023-03-23T00:21:30;8.18;;;3.72;;
28519;SDS011;15732;48.534;20.382;2023-03-23T00:24:04;11.27;;;4.63;;
28519;SDS011;15732;48.534;20.382;2023-03-23T00:26:40;10.02;;;3.33;;
28519;SDS011;15732;48.534;20.382;2023-03-23T00:29:19;10.82;;;4.13;;
28519;SDS011;15732;48.534;20.382;2023-03-23T00:31:51;8.13;;;3.33;;
28519;SDS011;15732;48.534;20.382;2023-03-23T00:34:20;10.00;;;4.05;;
28519;SDS011;15732;48.534;20.382;2023-03-23T00:36:49;8.80;;;3.75;;
28519;SDS011;15732;48.534;20.382;2023-03-23T00:39:22;9.82;;;4.57;;
28519;SDS011;15732;48.534;20.382;2023-03-23T00:41:51;9.93;;;3.42;;
28519;SDS011;15732;48.534;20.382;2023-03-23T00:44:19;9.88;;;3.78;;
28519;SDS011;15732;48.534;20.382;2023-03-23T00:46:49;7.93;;;2.72;;
28519;SDS011;15732;48.534;20.382;2023-03-23T00:49:18;7.93;;;3.55;;
28519;SDS011;15732;48.534;20.382;2023-03-23T00:51:46;8.13;;;2.80;;
28519;SDS011;15732;48.534;20.382;2023-03-23T00:54:13;7.80;;;4.47;;
28519;SDS011;15732;48.534;20.382;2023-03-23T00:56:41;10.00;;;3.97;;
28519;SDS011;15732;48.534;20.382;2023-03-23T00:59:08;11.23;;;4.03;;
28519;SDS011;15732;48.534;20.382;2023-03-23T01:01:35;12.20;;;3.97;;
28519;SDS011;15732;48.534;20.382;2023-03-23T01:04:06;8.27;;;3.58;;
28519;SDS011;15732;48.534;20.382;2023-03-23T01:06:34;7.35;;;3.15;;
28519;SDS011;15732;48.534;20.382;2023-03-23T01:09:05;9.20;;;3.63;;
28519;SDS011;15732;48.534;20.382;2023-03-23T01:11:34;8.73;;;3.72;;
28519;SDS011;15732;48.534;20.382;2023-03-23T01:14:06;8.60;;;3.33;;
28519;SDS011;15732;48.534;20.382;2023-03-23T01:16:33;7.97;;;3.85;;
28519;SDS011;15732;48.534;20.382;2023-03-23T01:19:00;10.07;;;4.05;;
28519;SDS011;15732;48.534;20.382;2023-03-23T01:21:28;9.80;;;3.00;;
28519;SDS011;15732;48.534;20.382;2023-03-23T01:23:55;6.07;;;3.08;;
28519;SDS011;15732;48.534;20.382;2023-03-23T01:26:23;8.07;;;3.10;;
28519;SDS011;15732;48.534;20.382;2023-03-23T01:28:52;8.90;;;4.28;;
28519;SDS011;15732;48.534;20.382;2023-03-23T01:31:20;6.63;;;2.55;;
28519;SDS011;15732;48.534;20.382;2023-03-23T01:33:50;8.68;;;3.13;;
28519;SDS011;15732;48.534;20.382;2023-03-23T01:36:24;8.57;;;3.58;;
28519;SDS011;15732;48.534;20.382;2023-03-23T01:38:59;5.68;;;2.65;;
28519;SDS011;15732;48.534;20.382;2023-03-23T01:41:29;6.65;;;3.00;;
28519;SDS011;15732;48.534;20.382;2023-03-23T01:44:01;6.88;;;3.30;;
28519;SDS011;15732;48.534;20.382;2023-03-23T01:46:53;8.40;;;3.25;;
28519;SDS011;15732;48.534;20.382;2023-03-23T01:49:23;5.68;;;2.38;;
28519;SDS011;15732;48.534;20.382;2023-03-23T01:51:59;7.25;;;3.17;;
28519;SDS011;15732;48.534;20.382;2023-03-23T01:54:31;13.82;;;3.45;;
28519;SDS011;15732;48.534;20.382;2023-03-23T01:57:04;8.05;;;3.30;;
28519;SDS011;15732;48.534;20.382;2023-03-23T01:59:41;8.30;;;2.85;;
28519;SDS011;15732;48.534;20.382;2023-03-23T02:02:11;8.40;;;4.05;;
28519;SDS011;15732;48.534;20.382;2023-03-23T02:04:39;5.57;;;2.37;;
28519;SDS011;15732;48.534;20.382;2023-03-23T02:07:10;9.57;;;3.65;;
28519;SDS011;15732;48.534;20.382;2023-03-23T02:09:42;7.45;;;3.15;;
28519;SDS011;15732;48.534;20.382;2023-03-23T02:12:10;7.03;;;2.95;;
28519;SDS011;15732;48.534;20.382;2023-03-23T02:14:38;7.20;;;3.50;;
28519;SDS011;15732;48.534;20.382;2023-03-23T02:25:46;6.47;;;3.08;;
28519;SDS011;15732;48.534;20.382;2023-03-23T02:37:03;9.43;;;2.63;;
28519;SDS011;15732;48.534;20.382;2023-03-23T02:39:52;6.57;;;2.70;;
28519;SDS011;15732;48.534;20.382;2023-03-23T02:42:39;4.85;;;1.88;;
28519;SDS011;15732;48.534;20.382;2023-03-23T02:45:10;5.45;;;2.55;;
28519;SDS011;15732;48.534;20.382;2023-03-23T02:47:39;6.47;;;2.92;;
28519;SDS011;15732;48.534;20.382;2023-03-23T02:50:09;5.35;;;3.03;;
28519;SDS011;15732;48.534;20.382;2023-03-23T02:52:40;7.70;;;2.90;;
28519;SDS011;15732;48.534;20.382;2023-03-23T02:55:10;5.63;;;2.97;;
28519;SDS011;15732;48.534;20.382;2023-03-23T02:57:37;5.95;;;3.20;;
28519;SDS011;15732;48.534;20.382;2023-03-23T03:00:05;5.25;;;2.35;;
28519;SDS011;15732;48.534;20.382;2023-03-23T03:02:36;9.68;;;2.50;;
28519;SDS011;15732;48.534;20.382;2023-03-23T03:05:54;6.45;;;3.17;;
28519;SDS011;15732;48.534;20.382;2023-03-23T03:10:58;6.88;;;2.67;;
28519;SDS011;15732;48.534;20.382;2023-03-23T03:14:05;5.47;;;2.05;;
28519;SDS011;15732;48.534;20.382;2023-03-23T03:16:49;4.28;;;2.05;;
28519;SDS011;15732;48.534;20.382;2023-03-23T03:19:24;6.78;;;3.15;;
28519;SDS011;15732;48.534;20.382;2023-03-23T03:24:30;7.75;;;2.78;;
28519;SDS011;15732;48.534;20.382;2023-03-23T03:26:59;7.47;;;2.80;;
28519;SDS011;15732;48.534;20.382;2023-03-23T03:29:30;6.82;;;3.25;;
28519;SDS011;15732;48.534;20.382;2023-03-23T03:32:00;4.97;;;2.47;;
28519;SDS011;15732;48.534;20.382;2023-03-23T03:34:32;5.57;;;2.80;;
28519;SDS011;15732;48.534;20.382;2023-03-23T03:37:00;6.43;;;2.13;;
28519;SDS011;15732;48.534;20.382;2023-03-23T03:39:31;6.05;;;2.67;;
28519;SDS011;15732;48.534;20.382;2023-03-23T03:42:02;11.00;;;3.55;;
28519;SDS011;15732;48.534;20.382;2023-03-23T03:47:01;5.95;;;2.50;;
28519;SDS011;15732;48.534;20.382;2023-03-23T03:49:29;6.82;;;3.30;;
28519;SDS011;15732;48.534;20.382;2023-03-23T03:51:56;7.18;;;2.80;;
28519;SDS011;15732;48.534;20.382;2023-03-23T03:54:24;5.80;;;2.85;;
28519;SDS011;15732;48.534;20.382;2023-03-23T03:56:55;7.40;;;3.47;;
28519;SDS011;15732;48.534;20.382;2023-03-23T03:59:23;7.57;;;3.47;;
28519;SDS011;15732;48.534;20.382;2023-03-23T04:01:55;10.85;;;2.67;;
28519;SDS011;15732;48.534;20.382;2023-03-23T04:04:26;7.25;;;2.72;;
28519;SDS011;15732;48.534;20.382;2023-03-23T04:06:54;5.10;;;2.67;;
28519;SDS011;15732;48.534;20.382;2023-03-23T04:09:26;6.50;;;2.85;;
28519;SDS011;15732;48.534;20.382;2023-03-23T04:11:54;6.18;;;2.38;;
28519;SDS011;15732;48.534;20.382;2023-03-23T04:14:25;5.68;;;2.70;;
28519;SDS011;15732;48.534;20.382;2023-03-23T04:16:56;5.97;;;2.40;;
28519;SDS011;15732;48.534;20.382;2023-03-23T04:19:25;5.60;;;2.28;;
28519;SDS011;15732;48.534;20.382;2023-03-23T04:21:54;5.40;;;2.67;;
28519;SDS011;15732;48.534;20.382;2023-03-23T04:24:21;6.85;;;2.70;;
28519;SDS011;15732;48.534;20.382;2023-03-23T04:26:50;5.75;;;2.08;;
28519;SDS011;15732;48.534;20.382;2023-03-23T04:29:37;6.00;;;2.72;;
28519;SDS011;15732;48.534;20.382;2023-03-23T04:32:08;6.07;;;2.65;;
28519;SDS011;15732;48.534;20.382;2023-03-23T04:34:39;3.65;;;1.77;;
28519;SDS011;15732;48.534;20.382;2023-03-23T04:37:07;6.97;;;2.65;;
28519;SDS011;15732;48.534;20.382;2023-03-23T04:39:34;9.80;;;2.50;;
28519;SDS011;15732;48.534;20.382;2023-03-23T04:42:08;4.80;;;2.25;;
28519;SDS011;15732;48.534;20.382;2023-03-23T04:47:03;7.43;;;2.83;;
28519;SDS011;15732;48.534;20.382;2023-03-23T04:49:35;6.43;;;2.65;;
28519;SDS011;15732;48.534;20.382;2023-03-23T04:52:03;19.05;;;2.45;;
28519;SDS011;15732;48.534;20.382;2023-03-23T04:54:31;4.03;;;2.67;;
28519;SDS011;15732;48.534;20.382;2023-03-23T04:57:03;3.88;;;1.92;;
28519;SDS011;15732;48.534;20.382;2023-03-23T04:59:36;5.30;;;2.13;;
28519;SDS011;15732;48.534;20.382;2023-03-23T05:02:04;2.70;;;1.45;;
28519;SDS011;15732;48.534;20.382;2023-03-23T05:04:31;4.07;;;1.77;;
28519;SDS011;15732;48.534;20.382;2023-03-23T05:06:59;5.43;;;2.60;;
28519;SDS011;15732;48.534;20.382;2023-03-23T05:09:26;4.47;;;2.03;;
28519;SDS011;15732;48.534;20.382;2023-03-23T05:11:54;3.22;;;1.67;;
28519;SDS011;15732;48.534;20.382;2023-03-23T05:14:21;11.00;;;1.88;;
28519;SDS011;15732;48.534;20.382;2023-03-23T05:16:48;5.40;;;2.13;;
28519;SDS011;15732;48.534;20.382;2023-03-23T05:19:17;4.43;;;1.90;;
28519;SDS011;15732;48.534;20.382;2023-03-23T05:21:45;5.13;;;3.03;;
28519;SDS011;15732;48.534;20.382;2023-03-23T05:24:16;4.25;;;2.00;;
28519;SDS011;15732;48.534;20.382;2023-03-23T05:26:43;3.50;;;1.48;;
28519;SDS011;15732;48.534;20.382;2023-03-23T05:29:14;5.93;;;2.22;;
28519;SDS011;15732;48.534;20.382;2023-03-23T05:31:41;4.70;;;2.17;;
28519;SDS011;15732;48.534;20.382;2023-03-23T05:34:09;6.00;;;2.05;;
28519;SDS011;15732;48.534;20.382;2023-03-23T05:39:04;6.95;;;2.67;;
28519;SDS011;15732;48.534;20.382;2023-03-23T05:41:32;6.68;;;2.00;;
28519;SDS011;15732;48.534;20.382;2023-03-23T05:43:59;8.77;;;3.60;;
28519;SDS011;15732;48.534;20.382;2023-03-23T05:46:26;4.47;;;2.75;;
28519;SDS011;15732;48.534;20.382;2023-03-23T05:48:58;3.03;;;1.67;;
28519;SDS011;15732;48.534;20.382;2023-03-23T05:51:29;4.57;;;2.20;;
28519;SDS011;15732;48.534;20.382;2023-03-23T05:53:57;4.13;;;2.30;;
28519;SDS011;15732;48.534;20.382;2023-03-23T05:56:24;6.13;;;2.65;;
28519;SDS011;15732;48.534;20.382;2023-03-23T05:58:53;7.80;;;2.83;;
28519;SDS011;15732;48.534;20.382;2023-03-23T06:01:21;8.30;;;2.65;;
28519;SDS011;15732;48.534;20.382;2023-03-23T06:03:52;7.00;;;2.78;;
28519;SDS011;15732;48.534;20.382;2023-03-23T06:06:20;4.18;;;2.05;;
28519;SDS011;15732;48.534;20.382;2023-03-23T06:08:47;4.35;;;2.00;;
28519;SDS011;15732;48.534;20.382;2023-03-23T06:11:16;7.88;;;2.47;;
28519;SDS011;15732;48.534;20.382;2023-03-23T06:13:44;5.75;;;2.63;;
28519;SDS011;15732;48.534;20.382;2023-03-23T06:16:11;6.43;;;3.00;;
28519;SDS011;15732;48.534;20.382;2023-03-23T06:18:39;6.82;;;2.63;;
28519;SDS011;15732;48.534;20.382;2023-03-23T06:21:08;6.00;;;2.75;;
28519;SDS011;15732;48.534;20.382;2023-03-23T06:23:37;11.07;;;3.45;;
28519;SDS011;15732;48.534;20.382;2023-03-23T06:26:08;7.25;;;2.22;;
28519;SDS011;15732;48.534;20.382;2023-03-23T06:28:35;9.37;;;3.27;;
28519;SDS011;15732;48.534;20.382;2023-03-23T06:31:06;10.07;;;3.30;;
28519;SDS011;15732;48.534;20.382;2023-03-23T06:33:34;8.25;;;2.92;;
28519;SDS011;15732;48.534;20.382;2023-03-23T06:36:03;5.20;;;2.75;;
28519;SDS011;15732;48.534;20.382;2023-03-23T06:38:32;6.72;;;2.80;;
28519;SDS011;15732;48.534;20.382;2023-03-23T06:40:59;6.38;;;2.75;;
28519;SDS011;15732;48.534;20.382;2023-03-23T06:43:27;5.82;;;2.58;;
28519;SDS011;15732;48.534;20.382;2023-03-23T06:45:57;6.72;;;3.30;;
28519;SDS011;15732;48.534;20.382;2023-03-23T06:48:26;5.72;;;2.72;;
28519;SDS011;15732;48.534;20.382;2023-03-23T06:50:54;7.68;;;3.50;;
28519;SDS011;15732;48.534;20.382;2023-03-23T06:53:21;6.55;;;2.78;;
28519;SDS011;15732;48.534;20.382;2023-03-23T06:55:48;7.00;;;3.67;;
28519;SDS011;15732;48.534;20.382;2023-03-23T06:58:16;8.23;;;3.35;;
28519;SDS011;15732;48.534;20.382;2023-03-23T07:00:43;7.35;;;2.85;;
28519;SDS011;15732;48.534;20.382;2023-03-23T07:03:11;6.20;;;2.92;;
28519;SDS011;15732;48.534;20.382;2023-03-23T07:05:39;12.93;;;3.75;;
28519;SDS011;15732;48.534;20.382;2023-03-23T07:08:06;8.60;;;2.95;;
28519;SDS011;15732;48.534;20.382;2023-03-23T07:10:33;5.93;;;2.88;;
28519;SDS011;15732;48.534;20.382;2023-03-23T07:13:00;7.25;;;2.92;;
28519;SDS011;15732;48.534;20.382;2023-03-23T07:15:28;7.68;;;2.30;;
28519;SDS011;15732;48.534;20.382;2023-03-23T07:17:55;5.35;;;2.47;;
28519;SDS011;15732;48.534;20.382;2023-03-23T07:20:23;7.70;;;3.50;;
28519;SDS011;15732;48.534;20.382;2023-03-23T07:22:50;5.07;;;2.55;;
28519;SDS011;15732;48.534;20.382;2023-03-23T07:25:17;6.07;;;3.30;;
28519;SDS011;15732;48.534;20.382;2023-03-23T07:27:48;8.65;;;3.40;;
28519;SDS011;15732;48.534;20.382;2023-03-23T07:30:16;6.35;;;3.00;;
28519;SDS011;15732;48.534;20.382;2023-03-23T07:32:43;5.65;;;2.67;;
28519;SDS011;15732;48.534;20.382;2023-03-23T07:35:11;7.47;;;2.55;;
28519;SDS011;15732;48.534;20.382;2023-03-23T07:37:38;5.60;;;2.75;;
28519;SDS011;15732;48.534;20.382;2023-03-23T07:40:07;7.03;;;2.95;;
28519;SDS011;15732;48.534;20.382;2023-03-23T07:42:56;5.78;;;3.20;;
28519;SDS011;15732;48.534;20.382;2023-03-23T07:45:27;5.05;;;2.22;;
28519;SDS011;15732;48.534;20.382;2023-03-23T07:47:58;6.47;;;2.60;;
28519;SDS011;15732;48.534;20.382;2023-03-23T07:50:26;6.13;;;2.97;;
28519;SDS011;15732;48.534;20.382;2023-03-23T07:52:57;5.63;;;3.17;;
28519;SDS011;15732;48.534;20.382;2023-03-23T07:55:24;6.90;;;3.17;;
28519;SDS011;15732;48.534;20.382;2023-03-23T07:57:53;7.38;;;3.72;;
28519;SDS011;15732;48.534;20.382;2023-03-23T08:00:21;8.73;;;3.22;;
28519;SDS011;15732;48.534;20.382;2023-03-23T08:02:53;4.63;;;2.08;;
28519;SDS011;15732;48.534;20.382;2023-03-23T08:05:22;9.77;;;3.40;;
28519;SDS011;15732;48.534;20.382;2023-03-23T08:07:52;7.38;;;3.60;;
28519;SDS011;15732;48.534;20.382;2023-03-23T08:10:22;6.50;;;3.60;;
28519;SDS011;15732;48.534;20.382;2023-03-23T08:12:53;7.50;;;3.45;;
28519;SDS011;15732;48.534;20.382;2023-03-23T08:15:21;5.90;;;2.63;;
28519;SDS011;15732;48.534;20.382;2023-03-23T08:17:48;5.80;;;2.63;;
28519;SDS011;15732;48.534;20.382;2023-03-23T08:20:17;7.32;;;2.50;;
28519;SDS011;15732;48.534;20.382;2023-03-23T08:22:48;6.33;;;3.23;;
28519;SDS011;15732;48.534;20.382;2023-03-23T08:25:18;5.63;;;2.97;;
28519;SDS011;15732;48.534;20.382;2023-03-23T08:27:46;3.90;;;1.95;;
28519;SDS011;15732;48.534;20.382;2023-03-23T08:30:15;8.20;;;3.15;;
28519;SDS011;15732;48.534;20.382;2023-03-23T08:32:43;5.80;;;3.20;;
28519;SDS011;15732;48.534;20.382;2023-03-23T08:35:14;10.35;;;2.78;;
28519;SDS011;15732;48.534;20.382;2023-03-23T08:37:42;5.60;;;2.92;;
28519;SDS011;15732;48.534;20.382;2023-03-23T08:40:10;8.50;;;2.88;;
28519;SDS011;15732;48.534;20.382;2023-03-23T08:42:43;4.97;;;2.13;;
28519;SDS011;15732;48.534;20.382;2023-03-23T08:45:10;6.72;;;2.28;;
28519;SDS011;15732;48.534;20.382;2023-03-23T08:47:41;9.18;;;3.22;;
28519;SDS011;15732;48.534;20.382;2023-03-23T08:50:09;5.50;;;2.78;;
28519;SDS011;15732;48.534;20.382;2023-03-23T08:52:39;7.35;;;2.15;;
28519;SDS011;15732;48.534;20.382;2023-03-23T08:55:07;5.97;;;2.13;;
28519;SDS011;15732;48.534;20.382;2023-03-23T08:57:35;6.05;;;2.88;;
28519;SDS011;15732;48.534;20.382;2023-03-23T09:00:05;4.43;;;2.40;;
28519;SDS011;15732;48.534;20.382;2023-03-23T09:02:58;4.35;;;2.28;;
28519;SDS011;15732;48.534;20.382;2023-03-23T09:05:27;6.07;;;2.30;;
28519;SDS011;15732;48.534;20.382;2023-03-23T09:07:58;5.78;;;2.67;;
28519;SDS011;15732;48.534;20.382;2023-03-23T09:10:26;9.40;;;2.88;;
28519;SDS011;15732;48.534;20.382;2023-03-23T09:12:56;4.28;;;2.00;;
28519;SDS011;15732;48.534;20.382;2023-03-23T09:15:23;5.22;;;2.08;;
28519;SDS011;15732;48.534;20.382;2023-03-23T09:17:50;4.10;;;1.85;;
28519;SDS011;15732;48.534;20.382;2023-03-23T09:20:23;8.02;;;2.13;;
28519;SDS011;15732;48.534;20.382;2023-03-23T09:22:52;5.13;;;2.03;;
28519;SDS011;15732;48.534;20.382;2023-03-23T09:25:20;5.03;;;1.63;;
28519;SDS011;15732;48.534;20.382;2023-03-23T09:27:55;4.97;;;1.65;;
28519;SDS011;15732;48.534;20.382;2023-03-23T09:30:24;3.38;;;1.38;;
28519;SDS011;15732;48.534;20.382;2023-03-23T09:32:57;3.17;;;1.48;;
28519;SDS011;15732;48.534;20.382;2023-03-23T09:35:30;5.35;;;1.65;;
28519;SDS011;15732;48.534;20.382;2023-03-23T09:38:01;7.45;;;1.63;;
28519;SDS011;15732;48.534;20.382;2023-03-23T09:43:36;3.33;;;1.60;;
28519;SDS011;15732;48.534;20.382;2023-03-23T09:49:31;4.63;;;1.58;;
28519;SDS011;15732;48.534;20.382;2023-03-23T09:52:15;3.90;;;1.38;;
28519;SDS011;15732;48.534;20.382;2023-03-23T09:54:44;6.45;;;1.73;;
28519;SDS011;15732;48.534;20.382;2023-03-23T09:57:32;5.30;;;1.77;;
28519;SDS011;15732;48.534;20.382;2023-03-23T10:02:52;2.65;;;1.40;;
28519;SDS011;15732;48.534;20.382;2023-03-23T10:05:48;3.47;;;1.70;;
28519;SDS011;15732;48.534;20.382;2023-03-23T10:08:24;1.88;;;0.82;;
28519;SDS011;15732;48.534;20.382;2023-03-23T10:11:03;4.18;;;1.45;;
28519;SDS011;15732;48.534;20.382;2023-03-23T10:22:26;3.92;;;1.77;;
28519;SDS011;15732;48.534;20.382;2023-03-23T10:25:02;3.42;;;0.95;;
28519;SDS011;15732;48.534;20.382;2023-03-23T10:27:42;7.18;;;1.75;;
28519;SDS011;15732;48.534;20.382;2023-03-23T10:30:33;6.18;;;2.78;;
28519;SDS011;15732;48.534;20.382;2023-03-23T10:33:11;3.90;;;1.55;;
28519;SDS011;15732;48.534;20.382;2023-03-23T10:35:55;4.28;;;2.05;;
28519;SDS011;15732;48.534;20.382;2023-03-23T10:38:31;2.08;;;1.38;;
28519;SDS011;15732;48.534;20.382;2023-03-23T10:41:11;3.72;;;1.33;;
28519;SDS011;15732;48.534;20.382;2023-03-23T10:43:46;3.70;;;1.58;;
28519;SDS011;15732;48.534;20.382;2023-03-23T10:46:20;3.88;;;1.60;;
28519;SDS011;15732;48.534;20.382;2023-03-23T10:49:18;2.80;;;1.48;;
28519;SDS011;15732;48.534;20.382;2023-03-23T10:51:53;3.78;;;1.13;;
28519;SDS011;15732;48.534;20.382;2023-03-23T10:54:35;5.43;;;1.50;;
28519;SDS011;15732;48.534;20.382;2023-03-23T10:57:20;3.28;;;1.25;;
28519;SDS011;15732;48.534;20.382;2023-03-23T10:59:57;3.00;;;1.45;;
28519;SDS011;15732;48.534;20.382;2023-03-23T11:02:31;8.98;;;1.45;;
28519;SDS011;15732;48.534;20.382;2023-03-23T11:05:27;2.92;;;1.30;;
28519;SDS011;15732;48.534;20.382;2023-03-23T11:08:15;1.75;;;0.88;;
28519;SDS011;15732;48.534;20.382;2023-03-23T11:13:19;10.02;;;1.63;;
28519;SDS011;15732;48.534;20.382;2023-03-23T11:15:53;4.57;;;1.70;;
28519;SDS011;15732;48.534;20.382;2023-03-23T11:20:53;4.30;;;1.52;;
28519;SDS011;15732;48.534;20.382;2023-03-23T11:23:27;8.25;;;1.88;;
28519;SDS011;15732;48.534;20.382;2023-03-23T11:26:09;2.63;;;1.27;;
28519;SDS011;15732;48.534;20.382;2023-03-23T11:28:48;2.75;;;1.58;;
28519;SDS011;15732;48.534;20.382;2023-03-23T11:31:30;2.85;;;1.20;;
28519;SDS011;15732;48.534;20.382;2023-03-23T11:34:03;5.35;;;1.17;;
28519;SDS011;15732;48.534;20.382;2023-03-23T11:36:37;4.15;;;1.80;;
28519;SDS011;15732;48.534;20.382;2023-03-23T11:39:26;3.10;;;1.42;;
28519;SDS011;15732;48.534;20.382;2023-03-23T11:41:55;3.70;;;1.77;;
28519;SDS011;15732;48.534;20.382;2023-03-23T11:44:26;2.88;;;1.33;;
28519;SDS011;15732;48.534;20.382;2023-03-23T11:52:32;2.92;;;1.55;;
28519;SDS011;15732;48.534;20.382;2023-03-23T11:55:26;2.42;;;1.10;;
28519;SDS011;15732;48.534;20.382;2023-03-23T11:58:17;6.72;;;1.50;;
28519;SDS011;15732;48.534;20.382;2023-03-23T12:03:21;3.05;;;1.20;;
28519;SDS011;15732;48.534;20.382;2023-03-23T12:08:40;2.22;;;1.15;;
28519;SDS011;15732;48.534;20.382;2023-03-23T12:14:12;6.35;;;3.13;;
28519;SDS011;15732;48.534;20.382;2023-03-23T12:27:58;4.43;;;1.33;;
28519;SDS011;15732;48.534;20.382;2023-03-23T12:30:42;3.40;;;1.20;;
28519;SDS011;15732;48.534;20.382;2023-03-23T12:41:29;4.57;;;1.60;;
28519;SDS011;15732;48.534;20.382;2023-03-23T12:46:36;3.17;;;1.00;;
28519;SDS011;15732;48.534;20.382;2023-03-23T12:55:20;2.40;;;1.30;;
28519;SDS011;15732;48.534;20.382;2023-03-23T12:58:13;3.92;;;1.58;;
28519;SDS011;15732;48.534;20.382;2023-03-23T13:00:50;8.77;;;2.15;;
28519;SDS011;15732;48.534;20.382;2023-03-23T13:11:58;3.47;;;1.17;;
28519;SDS011;15732;48.534;20.382;2023-03-23T13:14:32;3.80;;;1.55;;
28519;SDS011;15732;48.534;20.382;2023-03-23T13:20:23;2.63;;;1.10;;
28519;SDS011;15732;48.534;20.382;2023-03-23T13:23:09;2.00;;;0.70;;
28519;SDS011;15732;48.534;20.382;2023-03-23T13:26:02;2.33;;;0.98;;
28519;SDS011;15732;48.534;20.382;2023-03-23T13:31:25;5.18;;;1.38;;
28519;SDS011;15732;48.534;20.382;2023-03-23T13:39:47;2.22;;;0.93;;
28519;SDS011;15732;48.534;20.382;2023-03-23T13:42:18;2.45;;;1.27;;
28519;SDS011;15732;48.534;20.382;2023-03-23T13:49:55;6.57;;;1.40;;
28519;SDS011;15732;48.534;20.382;2023-03-23T13:57:51;4.47;;;1.90;;
28519;SDS011;15732;48.534;20.382;2023-03-23T14:00:49;24.67;;;7.57;;
28519;SDS011;15732;48.534;20.382;2023-03-23T14:03:39;19.20;;;6.07;;
28519;SDS011;15732;48.534;20.382;2023-03-23T14:06:16;12.57;;;4.70;;
28519;SDS011;15732;48.534;20.382;2023-03-23T14:09:05;19.05;;;4.28;;
28519;SDS011;15732;48.534;20.382;2023-03-23T14:11:55;6.55;;;2.85;;
28519;SDS011;15732;48.534;20.382;2023-03-23T14:14:42;4.32;;;1.42;;
28519;SDS011;15732;48.534;20.382;2023-03-23T14:19:40;4.75;;;1.70;;
28519;SDS011;15732;48.534;20.382;2023-03-23T14:22:22;5.97;;;2.05;;
28519;SDS011;15732;48.534;20.382;2023-03-23T14:25:01;10.48;;;3.78;;
28519;SDS011;15732;48.534;20.382;2023-03-23T14:27:43;13.30;;;4.53;;
28519;SDS011;15732;48.534;20.382;2023-03-23T14:32:41;10.27;;;1.98;;
28519;SDS011;15732;48.534;20.382;2023-03-23T14:35:13;3.92;;;1.40;;
28519;SDS011;15732;48.534;20.382;2023-03-23T14:37:52;4.55;;;1.98;;
28519;SDS011;15732;48.534;20.382;2023-03-23T14:42:47;6.95;;;2.53;;
28519;SDS011;15732;48.534;20.382;2023-03-23T14:45:16;18.45;;;2.97;;
28519;SDS011;15732;48.534;20.382;2023-03-23T14:47:46;6.55;;;3.15;;
28519;SDS011;15732;48.534;20.382;2023-03-23T14:50:29;9.32;;;2.75;;
28519;SDS011;15732;48.534;20.382;2023-03-23T14:53:07;19.00;;;2.00;;
28519;SDS011;15732;48.534;20.382;2023-03-23T14:55:46;7.03;;;2.88;;
28519;SDS011;15732;48.534;20.382;2023-03-23T14:58:16;8.52;;;2.97;;
28519;SDS011;15732;48.534;20.382;2023-03-23T15:01:05;6.60;;;2.22;;
28519;SDS011;15732;48.534;20.382;2023-03-23T15:03:52;31.73;;;2.95;;
28519;SDS011;15732;48.534;20.382;2023-03-23T15:06:25;5.03;;;2.00;;
28519;SDS011;15732;48.534;20.382;2023-03-23T15:08:59;7.05;;;2.33;;
28519;SDS011;15732;48.534;20.382;2023-03-23T15:11:30;6.65;;;2.47;;
28519;SDS011;15732;48.534;20.382;2023-03-23T15:14:00;7.00;;;1.85;;
28519;SDS011;15732;48.534;20.382;2023-03-23T15:16:39;13.38;;;5.15;;
28519;SDS011;15732;48.534;20.382;2023-03-23T15:19:19;13.40;;;4.93;;
28519;SDS011;15732;48.534;20.382;2023-03-23T15:24:33;6.22;;;2.95;;
28519;SDS011;15732;48.534;20.382;2023-03-23T15:29:52;6.90;;;3.25;;
28519;SDS011;15732;48.534;20.382;2023-03-23T15:32:21;4.28;;;1.77;;
28519;SDS011;15732;48.534;20.382;2023-03-23T15:34:49;5.03;;;2.10;;
28519;SDS011;15732;48.534;20.382;2023-03-23T15:37:29;12.48;;;3.85;;
28519;SDS011;15732;48.534;20.382;2023-03-23T15:39:58;15.98;;;6.15;;
28519;SDS011;15732;48.534;20.382;2023-03-23T15:42:26;11.05;;;3.90;;
28519;SDS011;15732;48.534;20.382;2023-03-23T15:50:12;3.05;;;1.25;;
28519;SDS011;15732;48.534;20.382;2023-03-23T15:52:47;3.67;;;2.08;;
28519;SDS011;15732;48.534;20.382;2023-03-23T15:57:57;12.25;;;5.85;;
28519;SDS011;15732;48.534;20.382;2023-03-23T16:00:25;7.05;;;3.55;;
28519;SDS011;15732;48.534;20.382;2023-03-23T16:05:43;9.63;;;3.25;;
28519;SDS011;15732;48.534;20.382;2023-03-23T16:08:10;12.20;;;5.22;;
28519;SDS011;15732;48.534;20.382;2023-03-23T16:10:37;18.10;;;5.93;;
28519;SDS011;15732;48.534;20.382;2023-03-23T16:13:04;6.63;;;1.92;;
28519;SDS011;15732;48.534;20.382;2023-03-23T16:15:32;3.97;;;2.00;;
28519;SDS011;15732;48.534;20.382;2023-03-23T16:17:59;7.00;;;1.60;;
28519;SDS011;15732;48.534;20.382;2023-03-23T16:20:27;5.30;;;1.67;;
28519;SDS011;15732;48.534;20.382;2023-03-23T16:22:55;25.73;;;1.92;;
28519;SDS011;15732;48.534;20.382;2023-03-23T16:25:23;4.17;;;1.67;;
28519;SDS011;15732;48.534;20.382;2023-03-23T16:27:50;5.18;;;2.13;;
28519;SDS011;15732;48.534;20.382;2023-03-23T16:30:23;42.92;;;4.35;;
28519;SDS011;15732;48.534;20.382;2023-03-23T16:32:52;9.23;;;4.22;;
28519;SDS011;15732;48.534;20.382;2023-03-23T16:35:24;25.65;;;10.40;;
28519;SDS011;15732;48.534;20.382;2023-03-23T16:37:51;30.67;;;11.52;;
28519;SDS011;15732;48.534;20.382;2023-03-23T16:40:24;39.20;;;13.20;;
28519;SDS011;15732;48.534;20.382;2023-03-23T16:42:52;53.73;;;20.53;;
28519;SDS011;15732;48.534;20.382;2023-03-23T16:45:19;34.00;;;13.00;;
28519;SDS011;15732;48.534;20.382;2023-03-23T16:47:49;71.57;;;18.63;;
28519;SDS011;15732;48.534;20.382;2023-03-23T16:50:16;34.00;;;13.45;;
28519;SDS011;15732;48.534;20.382;2023-03-23T16:55:13;28.02;;;10.27;;
28519;SDS011;15732;48.534;20.382;2023-03-23T16:57:41;28.23;;;11.90;;
28519;SDS011;15732;48.534;20.382;2023-03-23T17:00:09;26.45;;;11.35;;
28519;SDS011;15732;48.534;20.382;2023-03-23T17:02:43;29.58;;;9.75;;
28519;SDS011;15732;48.534;20.382;2023-03-23T17:05:14;25.35;;;11.18;;
28519;SDS011;15732;48.534;20.382;2023-03-23T17:07:46;40.90;;;15.95;;
28519;SDS011;15732;48.534;20.382;2023-03-23T17:10:13;73.85;;;20.58;;
28519;SDS011;15732;48.534;20.382;2023-03-23T17:12:41;75.78;;;23.42;;
28519;SDS011;15732;48.534;20.382;2023-03-23T17:15:09;61.05;;;19.63;;
28519;SDS011;15732;48.534;20.382;2023-03-23T17:17:41;73.60;;;27.80;;
28519;SDS011;15732;48.534;20.382;2023-03-23T17:20:12;106.57;;;37.50;;
28519;SDS011;15732;48.534;20.382;2023-03-23T17:22:40;60.25;;;22.65;;
28519;SDS011;15732;48.534;20.382;2023-03-23T17:25:08;75.20;;;30.85;;
28519;SDS011;15732;48.534;20.382;2023-03-23T17:27:36;50.60;;;19.63;;
28519;SDS011;15732;48.534;20.382;2023-03-23T17:30:04;51.88;;;19.83;;
28519;SDS011;15732;48.534;20.382;2023-03-23T17:32:32;60.08;;;24.42;;
28519;SDS011;15732;48.534;20.382;2023-03-23T17:35:04;58.00;;;27.40;;